Time;durP1;ratioP1;P1;durP2;ratioP2;P2;SDS_P1;SDS_P2;PMS_P1;PMS_P2;Temp;Humidity;BMP_temperature;BMP_pressure;BME280_temperature;BME280_humidity;BME280_pressure;Samples;Min_cycle;Max_cycle;Signal;HPM_P1;HPM_P2
2022/08/09 00:02:32;;;;;;;4.10;2.85;;;;;;;20.05;52.28;100961.59;5035242;28;20108;-84
2022/08/09 00:05:00;;;;;;;3.75;2.40;;;;;;;20.04;52.17;100965.25;5017186;28;20068;-83
2022/08/09 00:07:47;;;;;;;4.25;3.15;;;;;;;20.02;52.48;100967.16;5020192;28;20049;-84
2022/08/09 00:10:13;;;;;;;4.72;2.55;;;;;;;20.00;52.57;100969.97;5034784;28;20069;-85
2022/08/09 00:12:46;;;;;;;6.43;2.90;;;;;;;19.99;52.74;100962.94;5036147;28;20108;-84
2022/08/09 00:15:20;;;;;;;4.45;2.90;;;;;;;19.98;52.91;100961.22;5018232;28;20049;-85
2022/08/09 00:18:01;;;;;;;5.53;2.77;;;;;;;19.95;52.55;100966.78;5020149;28;20084;-86
2022/08/09 00:20:37;;;;;;;3.75;2.88;;;;;;;19.93;52.74;100963.38;5035460;28;20765;-84
2022/08/09 00:23:15;;;;;;;5.72;3.17;;;;;;;19.90;52.99;100967.16;5019513;28;20050;-85
2022/08/09 00:26:02;;;;;;;5.85;3.00;;;;;;;19.86;53.17;100960.34;5034503;28;20053;-84
2022/08/09 00:28:31;;;;;;;6.05;3.15;;;;;;;19.84;53.26;100962.25;5017223;28;20049;-84
2022/08/09 00:31:01;;;;;;;3.65;3.25;;;;;;;19.82;53.62;100969.56;5017715;28;20065;-85
2022/08/09 00:33:48;;;;;;;4.05;3.17;;;;;;;19.81;53.42;100959.81;5035245;28;20088;-84
2022/08/09 00:36:17;;;;;;;3.85;3.03;;;;;;;19.79;53.62;100972.44;5035525;28;20049;-84
2022/08/09 00:38:44;;;;;;;4.45;3.40;;;;;;;19.75;53.49;100963.84;5017949;28;20145;-86
2022/08/09 00:41:19;;;;;;;4.75;3.00;;;;;;;19.74;53.66;100969.28;5034345;28;20084;-87
2022/08/09 00:44:06;;;;;;;4.88;3.03;;;;;;;19.71;53.31;100959.69;5036015;28;20054;-84
2022/08/09 00:46:52;;;;;;;4.60;3.38;;;;;;;19.67;53.67;100961.72;5035271;28;20061;-85
2022/08/09 00:49:29;;;;;;;5.93;3.90;;;;;;;19.63;53.64;100965.59;5034907;28;20060;-87
2022/08/09 00:51:57;;;;;;;4.65;4.05;;;;;;;19.59;54.20;100969.47;5034834;28;20060;-84
2022/08/09 00:54:32;;;;;;;4.40;3.53;;;;;;;19.55;54.31;100967.16;5035450;28;20076;-85
2022/08/09 00:57:03;;;;;;;4.95;3.78;;;;;;;19.50;54.29;100962.16;5018153;28;20072;-86
2022/08/09 00:59:38;;;;;;;5.38;3.53;;;;;;;19.46;54.63;100963.38;5018796;28;20601;-87
2022/08/09 01:02:18;;;;;;;5.15;3.38;;;;;;;19.43;54.93;100960.94;5036573;28;20521;-85
2022/08/09 01:05:04;;;;;;;6.13;3.75;;;;;;;19.38;55.47;100963.94;5018075;28;20128;-83
2022/08/09 01:08:07;;;;;;;4.18;3.63;;;;;;;19.36;55.50;100960.56;5035853;28;20049;-85
2022/08/09 01:11:08;;;;;;;3.75;3.38;;;;;;;19.34;55.60;100957.13;5018014;28;20053;-87
2022/08/09 01:13:49;;;;;;;5.30;3.80;;;;;;;19.35;55.57;100954.34;5036222;28;20073;-85
2022/08/09 01:16:31;;;;;;;4.28;3.88;;;;;;;19.32;55.66;100954.56;5036306;28;20879;-84
2022/08/09 01:19:09;;;;;;;7.85;4.65;;;;;;;19.33;55.91;100960.78;5036052;28;20096;-86
2022/08/09 01:22:19;;;;;;;4.00;3.45;;;;;;;19.27;55.54;100962.09;5020910;28;20640;-84
2022/08/09 01:25:22;;;;;;;8.70;4.43;;;;;;;19.27;55.79;100956.75;5006481;28;20053;-85
2022/08/09 01:27:55;;;;;;;4.50;3.83;;;;;;;19.29;55.65;100962.84;5018896;28;20045;-84
2022/08/09 01:30:27;;;;;;;6.30;4.40;;;;;;;19.28;55.70;100961.09;5019596;28;20076;-86
2022/08/09 01:33:17;;;;;;;10.88;4.38;;;;;;;19.26;55.18;100963.06;5037144;28;20053;-83
2022/08/09 01:35:56;;;;;;;8.10;4.47;;;;;;;19.21;56.31;100966.06;5040402;28;20104;-85
2022/08/09 01:38:28;;;;;;;6.95;4.30;;;;;;;19.22;56.35;100961.59;5041743;28;20053;-85
2022/08/09 01:41:04;;;;;;;9.15;5.07;;;;;;;19.20;56.48;100961.69;5022925;28;20481;-86
2022/08/09 01:43:34;;;;;;;8.45;4.70;;;;;;;19.21;56.00;100967.91;5041351;28;20065;-86
2022/08/09 01:46:23;;;;;;;4.65;4.13;;;;;;;19.17;56.55;100963.75;5041559;28;20057;-84
2022/08/09 01:48:56;;;;;;;6.68;4.32;;;;;;;19.17;55.64;100966.41;5038911;28;20076;-84
2022/08/09 01:51:27;;;;;;;7.20;4.45;;;;;;;19.13;55.78;100974.66;5042009;28;20136;-87
2022/08/09 01:54:00;;;;;;;;;;;;;;;19.10;54.63;100966.03;5042467;28;20056;-87
2022/08/09 01:56:29;;;;;;;6.47;4.40;;;;;;;19.11;55.11;100967.72;5041263;28;19925;-85
2022/08/09 01:59:00;;;;;;;6.75;4.82;;;;;;;19.04;55.91;100967.28;5041822;28;20144;-87
2022/08/09 02:01:29;;;;;;;6.95;5.20;;;;;;;19.00;55.90;100965.81;5042457;28;20067;-87
2022/08/09 02:04:16;;;;;;;8.02;4.57;;;;;;;18.96;56.08;100967.88;5042531;28;20057;-85
2022/08/09 02:09:33;;;;;;;5.90;4.20;;;;;;;18.92;56.28;100976.19;5042166;28;20104;-84
2022/08/09 02:12:11;;;;;;;4.85;4.25;;;;;;;18.89;56.79;100971.94;5026766;28;20104;-86
2022/08/09 02:14:47;;;;;;;6.55;4.70;;;;;;;18.87;56.97;100977.38;5043287;28;20101;-86
2022/08/09 02:17:20;;;;;;;8.13;4.95;;;;;;;18.87;56.52;100977.38;5043680;28;20046;-86
2022/08/09 02:20:07;;;;;;;5.93;4.47;;;;;;;18.88;56.33;100984.41;5042323;28;20081;-85
2022/08/09 02:22:55;;;;;;;5.80;4.78;;;;;;;18.82;57.54;100979.53;5043744;28;20046;-85
2022/08/09 02:25:25;;;;;;;8.00;5.50;;;;;;;18.84;56.99;100988.25;5026158;28;20041;-87
2022/08/09 02:28:05;;;;;;;7.20;5.05;;;;;;;18.79;57.22;100985.09;5043755;28;20422;-87
2022/08/09 02:30:40;;;;;;;5.28;4.57;;;;;;;18.81;57.61;100983.16;5044088;28;20672;-88
2022/08/09 02:33:11;;;;;;;5.10;4.63;;;;;;;18.80;57.26;100984.09;5045353;28;20053;-87
2022/08/09 02:35:44;;;;;;;7.20;4.70;;;;;;;18.80;56.91;100986.78;5043405;28;20045;-86
2022/08/09 02:38:40;;;;;;;7.10;5.40;;;;;;;18.75;57.42;100980.94;5019307;28;20210;-85
2022/08/09 02:41:18;;;;;;;5.85;4.18;;;;;;;18.77;56.83;100984.34;5034027;28;20077;-86
2022/08/09 02:43:48;;;;;;;7.20;4.88;;;;;;;18.75;56.58;100978.25;5034542;28;20116;-84
2022/08/09 02:46:25;;;;;;;7.60;4.95;;;;;;;18.71;57.00;100980.31;5033151;28;20049;-86
2022/08/09 02:48:55;;;;;;;;;;;;;;;18.69;55.70;100974.22;5034532;28;20053;-84
2022/08/09 02:51:23;;;;;;;6.88;4.80;;;;;;;18.70;55.98;100975.06;5016538;28;19932;-84
2022/08/09 02:53:56;;;;;;;5.65;4.57;;;;;;;18.65;56.95;100978.06;5033816;28;20060;-84
2022/08/09 02:56:29;;;;;;;8.57;5.30;;;;;;;18.62;56.84;100971.13;5033653;28;20116;-84
2022/08/09 02:58:56;;;;;;;6.68;5.03;;;;;;;18.59;56.74;100967.84;5016000;28;20045;-86
2022/08/09 03:01:23;;;;;;;7.10;5.40;;;;;;;18.57;56.96;100962.63;5034061;28;20049;-86
2022/08/09 03:04:10;;;;;;;7.75;4.78;;;;;;;18.52;57.22;100967.44;5033652;28;20053;-86
2022/08/09 03:06:46;;;;;;;6.35;4.80;;;;;;;18.51;57.32;100964.88;5017008;28;20438;-83
2022/08/09 03:09:15;;;;;;;6.40;4.93;;;;;;;18.47;57.44;100961.59;5032734;28;20056;-86
2022/08/09 03:11:43;;;;;;;6.07;4.85;;;;;;;18.47;57.22;100964.25;5015854;28;20065;-85
2022/08/09 03:14:31;;;;;;;7.35;5.03;;;;;;;18.45;57.52;100960.84;5032764;28;20127;-84
2022/08/09 03:16:59;;;;;;;7.68;5.28;;;;;;;18.44;57.87;100967.13;5015599;28;20095;-85
2022/08/09 03:19:29;;;;;;;7.85;5.60;;;;;;;18.43;57.86;100963.59;5032984;28;20136;-86
2022/08/09 03:22:17;;;;;;;5.82;4.90;;;;;;;18.42;57.73;100966.38;5032924;28;20127;-86
2022/08/09 03:24:57;;;;;;;4.97;4.28;;;;;;;18.41;57.53;100965.53;5033061;28;20072;-86
2022/08/09 03:27:50;;;;;;;8.40;4.97;;;;;;;18.38;58.10;100970.25;5032967;28;20095;-83
2022/08/09 03:30:17;;;;;;;8.50;4.35;;;;;;;18.38;57.32;100970.25;5032795;28;20057;-83
2022/08/09 03:33:03;;;;;;;12.70;4.60;;;;;;;18.34;57.30;100970.44;5032963;28;20053;-83
2022/08/09 03:35:45;;;;;;;7.47;5.05;;;;;;;18.32;57.13;100967.03;5032861;28;20123;-84
2022/08/09 03:38:31;;;;;;;7.18;4.78;;;;;;;18.30;57.36;100966.28;5017784;28;20135;-83
2022/08/09 03:40:58;;;;;;;5.43;4.25;;;;;;;18.27;57.26;100969.16;5033369;28;20053;-86
2022/08/09 03:43:26;;;;;;;7.32;4.80;;;;;;;18.23;57.73;100962.34;5034532;28;20527;-86
2022/08/09 03:45:58;;;;;;;6.43;5.13;;;;;;;18.20;57.85;100974.09;5018313;28;20049;-84
2022/08/09 03:48:49;;;;;;;6.70;4.63;;;;;;;18.19;58.16;100968.84;5031892;28;20103;-83
2022/08/09 03:51:20;;;;;;;7.30;4.90;;;;;;;18.19;58.14;100968.84;5032077;28;20074;-83
2022/08/09 03:54:09;;;;;;;6.50;4.90;;;;;;;18.18;57.91;100969.81;5032170;28;20080;-83
2022/08/09 03:56:38;;;;;;;6.28;4.22;;;;;;;18.18;57.98;100968.03;5032239;28;20053;-83
2022/08/09 03:59:08;;;;;;;5.80;4.70;;;;;;;18.16;58.25;100975.25;5014675;28;20136;-83
2022/08/09 04:01:47;;;;;;;4.90;4.40;;;;;;;18.16;58.18;100971.75;5016320;28;20049;-84
2022/08/09 04:04:15;;;;;;;7.72;5.05;;;;;;;18.13;58.22;100978.13;5032241;28;20092;-83
2022/08/09 04:06:42;;;;;;;5.15;4.60;;;;;;;18.14;58.22;100974.53;5031710;28;20057;-83
2022/08/09 04:09:14;;;;;;;6.72;4.90;;;;;;;18.14;58.19;100973.66;5031377;28;20054;-84
2022/08/09 04:12:10;;;;;;;7.28;4.93;;;;;;;18.09;59.18;100977.50;5031991;28;20089;-83
2022/08/09 04:14:55;;;;;;;11.65;5.00;;;;;;;18.14;58.35;100973.66;5031282;28;20080;-83
2022/08/09 04:17:28;;;;;;;6.85;5.03;;;;;;;18.13;58.07;100977.28;5015510;28;20422;-83
2022/08/09 04:19:55;;;;;;;6.65;4.72;;;;;;;18.12;58.28;100975.59;5032112;28;20081;-84
2022/08/09 04:22:22;;;;;;;8.32;5.70;;;;;;;18.10;58.26;100976.53;5014505;28;20053;-82
2022/08/09 04:24:49;;;;;;;6.28;5.03;;;;;;;18.08;58.47;100970.47;5031939;28;20046;-83
2022/08/09 04:27:16;;;;;;;5.57;4.63;;;;;;;18.07;58.61;100974.06;5031946;28;20055;-82
2022/08/09 04:29:48;;;;;;;4.60;4.13;;;;;;;18.07;58.72;100975.88;5032591;28;20061;-84
2022/08/09 04:32:16;;;;;;;7.82;4.95;;;;;;;18.08;58.94;100981.13;5014843;28;20049;-83
2022/08/09 04:34:59;;;;;;;6.03;4.72;;;;;;;18.10;58.68;100983.69;5016414;28;20100;-84
2022/08/09 04:37:26;;;;;;;5.03;4.53;;;;;;;18.10;58.82;100983.69;5031915;28;20135;-85
2022/08/09 04:40:13;;;;;;;8.52;4.82;;;;;;;18.09;58.86;100980.16;5016160;28;20065;-84
2022/08/09 04:42:59;;;;;;;6.63;4.72;;;;;;;18.11;58.65;100982.72;5031350;28;20576;-84
2022/08/09 04:45:26;;;;;;;6.38;4.95;;;;;;;18.09;58.75;100982.81;5030366;28;20096;-83
2022/08/09 04:47:58;;;;;;;6.53;4.90;;;;;;;18.10;58.86;100992.50;5031581;28;20128;-83
2022/08/09 04:50:30;;;;;;;9.40;5.05;;;;;;;18.09;58.63;100993.47;5014630;28;20517;-84
2022/08/09 04:53:07;;;;;;;6.97;4.63;;;;;;;18.09;58.74;100996.16;5030612;28;20053;-85
2022/08/09 04:55:40;;;;;;;5.80;4.90;;;;;;;18.07;58.88;100998.03;5031162;28;20048;-86
2022/08/09 04:58:24;;;;;;;7.72;4.93;;;;;;;18.06;58.75;100998.16;5031008;28;20050;-86
2022/08/09 05:00:51;;;;;;;7.82;4.60;;;;;;;18.06;58.86;101004.31;5012945;28;20466;-86
2022/08/09 05:03:21;;;;;;;7.53;5.53;;;;;;;18.06;59.19;101000.81;5030574;28;20057;-86
2022/08/09 05:06:07;;;;;;;7.05;4.95;;;;;;;18.07;59.16;101010.50;5030884;28;20451;-87
2022/08/09 05:08:34;;;;;;;7.25;4.88;;;;;;;18.07;59.14;101007.84;5013125;28;20053;-86
2022/08/09 05:11:02;;;;;;;4.90;4.35;;;;;;;18.07;58.93;101016.69;5036790;28;20509;-85
2022/08/09 05:13:32;;;;;;;5.80;4.35;;;;;;;18.08;58.96;101018.44;5037368;28;20104;-86
2022/08/09 05:16:04;;;;;;;5.47;4.15;;;;;;;18.09;59.08;101009.47;5019490;28;20046;-85
2022/08/09 05:18:32;;;;;;;7.15;4.75;;;;;;;18.10;59.37;101016.50;5034813;28;20053;-85
2022/08/09 05:21:19;;;;;;;7.82;4.68;;;;;;;18.12;59.41;101018.22;5020729;28;20054;-86
2022/08/09 05:23:55;;;;;;;6.10;5.10;;;;;;;18.14;59.27;101016.28;5017152;28;20073;-84
2022/08/09 05:26:27;;;;;;;5.70;4.32;;;;;;;18.15;59.42;101023.31;5018246;28;20054;-84
2022/08/09 05:29:03;;;;;;;5.95;4.75;;;;;;;18.17;59.46;101026.75;5000114;28;20046;-85
2022/08/09 05:31:29;;;;;;;5.93;4.30;;;;;;;18.19;59.09;101032.81;5017193;28;20053;-84
2022/08/09 05:34:14;;;;;;;;;;;;;;;18.19;58.83;101032.81;5017632;28;20518;-85
2022/08/09 05:36:42;;;;;;;5.13;4.40;;;;;;;18.25;58.74;101034.22;5017297;28;19948;-85
2022/08/09 05:39:13;;;;;;;10.43;4.68;;;;;;;18.25;59.40;101035.06;5017123;28;20058;-85
2022/08/09 05:41:54;;;;;;;4.80;4.30;;;;;;;18.27;59.17;101029.63;5018281;28;20422;-86
2022/08/09 05:44:21;;;;;;;7.28;4.60;;;;;;;18.28;59.35;101034.84;5000213;28;20093;-85
2022/08/09 05:46:58;;;;;;;5.18;4.45;;;;;;;18.30;59.26;101032.06;5017877;28;20261;-85
2022/08/09 05:49:25;;;;;;;5.03;4.28;;;;;;;18.32;59.17;101039.00;5017848;28;20575;-86
2022/08/09 05:52:12;;;;;;;4.85;4.45;;;;;;;18.36;59.19;101040.50;5002026;28;20474;-84
2022/08/09 05:54:41;;;;;;;5.07;4.10;;;;;;;18.39;59.20;101047.41;5017455;28;20101;-85
2022/08/09 05:57:08;;;;;;;6.05;4.50;;;;;;;18.43;59.47;101046.25;5017242;28;20045;-85
2022/08/09 05:59:39;;;;;;;6.45;4.45;;;;;;;18.47;59.59;101049.56;5000405;28;20054;-85
2022/08/09 06:02:07;;;;;;;6.57;4.60;;;;;;;18.50;59.28;101049.34;5017491;28;20057;-86
2022/08/09 06:04:35;;;;;;;4.93;3.72;;;;;;;18.54;59.21;101048.16;5017471;28;20056;-86
2022/08/09 06:07:10;;;;;;;5.70;4.45;;;;;;;18.57;59.13;101045.28;5017405;28;20566;-86
2022/08/09 06:09:47;;;;;;;7.60;4.45;;;;;;;18.60;59.07;101047.75;5016755;28;20053;-86
2022/08/09 06:12:28;;;;;;;5.95;3.83;;;;;;;18.64;59.19;101045.69;5017960;28;20050;-85
2022/08/09 06:14:55;;;;;;;4.18;3.78;;;;;;;18.66;59.15;101038.47;5017781;28;20050;-86
2022/08/09 06:17:27;;;;;;;4.22;3.65;;;;;;;18.70;59.34;101049.75;5018146;28;20054;-86
2022/08/09 06:20:06;;;;;;;6.90;4.32;;;;;;;18.72;59.06;101056.69;5017443;28;20072;-87
2022/08/09 06:22:33;;;;;;;7.15;4.13;;;;;;;18.77;59.09;101048.38;5017989;28;20050;-86
2022/08/09 06:25:00;;;;;;;3.85;3.50;;;;;;;18.80;59.08;101052.63;5017883;28;20290;-84
2022/08/09 06:27:27;;;;;;;6.43;3.83;;;;;;;18.84;58.95;101054.94;5000453;28;20054;-85
2022/08/09 06:30:10;;;;;;;6.40;3.92;;;;;;;18.88;59.21;101055.59;5017784;28;20124;-84
2022/08/09 06:32:40;;;;;;;5.32;3.83;;;;;;;18.92;58.91;101062.44;5000597;28;20523;-85
2022/08/09 06:35:27;;;;;;;5.72;4.10;;;;;;;18.96;58.93;101063.06;5017668;28;20069;-86
2022/08/09 06:38:14;;;;;;;6.63;4.03;;;;;;;19.01;58.90;101063.56;5003079;28;20499;-86
2022/08/09 06:40:42;;;;;;;5.35;3.67;;;;;;;19.05;58.81;101065.09;5000573;28;20498;-86
2022/08/09 06:43:08;;;;;;;4.40;4.00;;;;;;;19.09;58.77;101066.56;5017646;28;20061;-86
2022/08/09 06:45:37;;;;;;;5.68;4.15;;;;;;;19.14;58.75;101066.25;5017190;28;20042;-85
2022/08/09 06:48:24;;;;;;;5.65;4.20;;;;;;;19.18;58.75;101064.19;5017449;28;20198;-86
2022/08/09 06:50:56;;;;;;;6.97;4.85;;;;;;;19.21;58.58;101064.81;5017408;28;20128;-87
2022/08/09 06:53:23;;;;;;;4.90;3.55;;;;;;;19.25;58.79;101066.31;5000045;28;20053;-85
2022/08/09 06:55:50;;;;;;;4.03;3.72;;;;;;;19.30;58.75;101068.66;5018366;28;20050;-86
2022/08/09 06:58:16;;;;;;;10.10;4.57;;;;;;;19.34;58.43;101064.78;5000523;28;20057;-85
2022/08/09 07:01:03;;;;;;;6.30;3.75;;;;;;;19.40;58.58;101068.84;5018364;28;20085;-85
2022/08/09 07:03:32;;;;;;;8.60;4.00;;;;;;;19.46;58.92;101070.16;5000676;28;20105;-85
2022/08/09 07:06:05;;;;;;;4.28;3.55;;;;;;;19.52;58.44;101061.72;5010989;28;20429;-84
2022/08/09 07:08:33;;;;;;;7.50;4.03;;;;;;;19.56;58.64;101065.00;5019757;28;20112;-85
2022/08/09 07:11:03;;;;;;;5.50;4.05;;;;;;;19.61;58.41;101058.38;5019228;28;20057;-85
2022/08/09 07:13:32;;;;;;;6.53;3.92;;;;;;;19.66;58.61;101053.53;5018757;28;20361;-85
2022/08/09 07:16:19;;;;;;;6.43;4.43;;;;;;;19.73;58.50;101058.41;5018382;28;20050;-85
2022/08/09 07:19:05;;;;;;;4.32;3.92;;;;;;;19.81;58.63;101073.88;5004095;28;20053;-85
2022/08/09 07:21:33;;;;;;;4.47;3.55;;;;;;;19.86;58.59;101069.03;5036020;28;20075;-86
2022/08/09 07:24:02;;;;;;;5.00;3.83;;;;;;;19.92;58.46;101069.41;5038917;28;20049;-86
2022/08/09 07:26:30;;;;;;;7.55;3.90;;;;;;;19.99;58.43;101069.81;5038603;28;20072;-85
2022/08/09 07:28:57;;;;;;;5.85;4.10;;;;;;;20.07;58.40;101073.75;5038566;28;20072;-86
2022/08/09 07:31:37;;;;;;;14.23;4.35;;;;;;;20.14;58.42;101073.16;5022412;28;20057;-85
2022/08/09 07:34:14;;;;;;;4.65;3.35;;;;;;;20.22;58.28;101080.56;5040526;28;20073;-84
2022/08/09 07:36:46;;;;;;;;;;;;;;;20.27;57.92;101082.91;5041084;28;20042;-84
2022/08/09 07:39:13;;;;;;;6.03;3.10;;;;;;;20.41;57.57;101084.50;5040019;28;19928;-85
2022/08/09 07:42:01;;;;;;;6.60;3.15;;;;;;;20.48;57.83;101075.00;5040401;28;20474;-84
2022/08/09 07:44:27;;;;;;;5.13;3.35;;;;;;;20.55;58.09;101075.38;5039013;28;20057;-86
2022/08/09 07:47:14;;;;;;;8.07;3.42;;;;;;;20.63;57.71;101081.00;5039965;28;20644;-85
2022/08/09 07:49:42;;;;;;;6.88;3.22;;;;;;;20.69;57.70;101085.00;5039281;28;20076;-85
2022/08/09 07:52:28;;;;;;;4.68;3.58;;;;;;;20.78;57.58;101081.59;5025248;28;20084;-86
2022/08/09 07:54:55;;;;;;;5.82;3.58;;;;;;;20.85;57.61;101078.44;5040680;28;20053;-86
2022/08/09 07:57:22;;;;;;;4.15;3.65;;;;;;;20.93;57.52;101079.56;5040977;28;20060;-85
2022/08/09 08:00:03;;;;;;;5.32;3.60;;;;;;;21.02;57.14;101080.66;5040489;28;20053;-85
2022/08/09 08:02:34;;;;;;;4.30;3.38;;;;;;;21.11;56.99;101091.59;5039267;28;20081;-84
2022/08/09 08:05:08;;;;;;;4.93;3.03;;;;;;;21.18;56.99;101092.78;5034001;28;20060;-83
2022/08/09 08:07:44;;;;;;;6.55;3.28;;;;;;;21.25;57.11;101080.63;5034203;28;20084;-84
2022/08/09 08:10:31;;;;;;;5.85;3.60;;;;;;;21.35;56.61;101080.72;5033886;28;20092;-84
2022/08/09 08:13:00;;;;;;;6.90;3.70;;;;;;;21.44;56.75;101085.31;5034253;28;20453;-84
2022/08/09 08:15:30;;;;;;;8.80;3.08;;;;;;;21.52;56.66;101092.72;5034375;28;20061;-84
2022/08/09 08:18:03;;;;;;;8.52;3.05;;;;;;;21.60;56.50;101089.38;5033429;28;20120;-84
2022/08/09 08:20:30;;;;;;;5.82;3.15;;;;;;;21.68;56.42;101086.94;5032927;28;20184;-85
2022/08/09 08:23:01;;;;;;;6.55;2.60;;;;;;;21.78;56.38;101091.53;5015852;28;20499;-85
2022/08/09 08:25:42;;;;;;;5.70;2.88;;;;;;;21.88;56.39;101089.81;5033298;28;20459;-85
2022/08/09 08:28:13;;;;;;;3.65;2.50;;;;;;;21.98;56.05;101090.72;5034640;28;20141;-85
2022/08/09 08:30:42;;;;;;;5.10;2.95;;;;;;;22.06;56.27;101097.28;5032304;28;20061;-85
2022/08/09 08:33:09;;;;;;;4.63;2.70;;;;;;;22.16;55.73;101097.34;5015877;28;20053;-84
2022/08/09 08:35:48;;;;;;;7.85;3.00;;;;;;;22.25;55.78;101100.09;5033592;28;20076;-85
2022/08/09 08:38:25;;;;;;;4.40;2.80;;;;;;;22.37;55.46;101091.97;5032669;28;20049;-84
2022/08/09 08:40:54;;;;;;;4.82;2.72;;;;;;;22.48;55.15;101091.91;5032516;28;20057;-85
2022/08/09 08:43:22;;;;;;;4.97;2.65;;;;;;;22.59;55.31;101087.47;5035596;28;20056;-85
2022/08/09 08:45:53;;;;;;;5.15;2.65;;;;;;;22.69;54.44;101096.41;5038868;28;20246;-84
2022/08/09 08:48:41;;;;;;;4.28;2.60;;;;;;;22.83;55.72;101097.03;5039592;28;20116;-87
2022/08/09 08:51:20;;;;;;;5.15;2.40;;;;;;;22.96;54.71;101096.78;5022566;28;20078;-84
2022/08/09 08:53:51;;;;;;;4.45;2.55;;;;;;;23.09;54.58;101100.09;5036064;28;20088;-86
2022/08/09 08:56:35;;;;;;;3.70;2.28;;;;;;;23.21;54.37;101098.13;5036244;28;20510;-85
2022/08/09 08:59:11;;;;;;;5.63;2.83;;;;;;;23.32;54.23;101096.34;5036876;28;20046;-86
2022/08/09 09:01:47;;;;;;;5.50;2.67;;;;;;;23.48;54.08;101098.50;5037022;28;20053;-85
2022/08/09 09:04:26;;;;;;;3.75;2.25;;;;;;;23.60;53.75;101088.47;5019381;28;20116;-86
2022/08/09 09:06:56;;;;;;;6.38;2.30;;;;;;;23.72;53.41;101094.53;5035803;28;20045;-85
2022/08/09 09:09:25;;;;;;;4.07;2.30;;;;;;;23.85;52.96;101091.59;5036456;28;20045;-85
2022/08/09 09:12:14;;;;;;;8.93;2.40;;;;;;;23.99;52.43;101098.38;5036370;28;20081;-85
2022/08/09 09:14:43;;;;;;;2.60;2.13;;;;;;;24.10;52.64;101105.44;5035819;28;20433;-85
2022/08/09 09:17:10;;;;;;;2.88;2.40;;;;;;;24.20;52.62;101115.22;5036274;28;20507;-85
2022/08/09 09:19:43;;;;;;;3.53;2.10;;;;;;;24.30;51.48;101117.88;5036092;28;20115;-86
2022/08/09 09:22:15;;;;;;;4.85;2.45;;;;;;;24.38;52.06;101111.81;5036618;28;20085;-85
2022/08/09 09:24:53;;;;;;;3.50;1.92;;;;;;;24.50;51.46;101112.47;5036242;28;20045;-85
2022/08/09 09:27:40;;;;;;;5.68;2.15;;;;;;;24.62;51.46;101115.81;5036089;28;20093;-85
2022/08/09 09:30:27;;;;;;;4.38;2.50;;;;;;;24.73;50.86;101118.34;5021349;28;20143;-85
2022/08/09 09:33:12;;;;;;;2.83;2.00;;;;;;;24.84;50.52;101113.78;5036284;28;20426;-85
2022/08/09 09:35:53;;;;;;;2.70;2.05;;;;;;;24.89;50.00;101102.59;5036006;28;20471;-85
2022/08/09 09:38:48;;;;;;;5.90;2.38;;;;;;;24.96;50.16;101107.22;5035746;28;20070;-85
2022/08/09 09:41:26;;;;;;;5.13;2.90;;;;;;;25.04;50.24;101101.06;5035568;28;20057;-85
2022/08/09 09:44:03;;;;;;;2.83;2.13;;;;;;;25.15;50.74;101097.31;5035020;28;20072;-84
2022/08/09 09:46:43;;;;;;;3.00;1.90;;;;;;;25.24;50.04;101096.41;5035560;28;20053;-87
2022/08/09 09:49:22;;;;;;;8.77;2.50;;;;;;;25.34;49.13;101101.75;5034743;28;20056;-87
2022/08/09 09:52:10;;;;;;;3.58;2.30;;;;;;;25.48;49.75;101086.91;5037418;28;20087;-86
2022/08/09 09:55:01;;;;;;;3.97;2.20;;;;;;;25.59;48.73;101087.69;5038465;28;20087;-86
2022/08/09 09:58:03;;;;;;;4.15;2.20;;;;;;;25.71;49.81;101085.63;5020758;28;20084;-86
2022/08/09 10:01:15;;;;;;;4.15;2.40;;;;;;;25.83;48.93;101092.47;5034830;28;20053;-86
2022/08/09 10:04:03;;;;;;;5.47;1.85;;;;;;;26.01;49.01;101091.59;5035001;28;20534;-84
2022/08/09 10:06:41;;;;;;;127.45;7.35;;;;;;;26.10;48.10;101087.97;5034541;28;20103;-85
2022/08/09 10:09:14;;;;;;;4.85;2.60;;;;;;;26.22;48.38;101083.16;5034500;28;20128;-87
2022/08/09 10:12:00;;;;;;;14.82;2.85;;;;;;;26.28;48.26;101076.31;5035179;28;20049;-84
2022/08/09 10:14:47;;;;;;;3.33;2.20;;;;;;;26.43;48.24;101091.91;5034899;28;20081;-86
2022/08/09 10:17:17;;;;;;;5.75;1.60;;;;;;;26.52;48.18;101097.22;5034391;28;20547;-85
2022/08/09 10:20:20;;;;;;;3.47;1.67;;;;;;;26.64;48.56;101095.06;5034223;28;20053;-85
2022/08/09 10:23:14;;;;;;;2.33;1.38;;;;;;;26.76;47.27;101092.09;5034414;28;20457;-86
2022/08/09 10:25:44;;;;;;;3.80;1.48;;;;;;;26.93;46.71;101085.75;5033402;28;20080;-86
2022/08/09 10:28:32;;;;;;;4.40;1.80;;;;;;;27.07;47.42;101094.28;5034115;28;20080;-85
2022/08/09 10:30:59;;;;;;;16.73;2.42;;;;;;;27.18;47.14;101091.25;5034456;28;20064;-85
2022/08/09 10:33:46;;;;;;;6.72;1.98;;;;;;;27.33;46.96;101087.91;5019244;28;20053;-86
2022/08/09 10:36:34;;;;;;;3.55;1.55;;;;;;;27.49;45.57;101081.69;5033362;28;20076;-84
2022/08/09 10:39:01;;;;;;;2.35;1.23;;;;;;;27.62;45.29;101081.19;5033714;28;20056;-84
2022/08/09 10:41:27;;;;;;;5.57;1.38;;;;;;;27.74;44.54;101083.59;5016423;28;20060;-86
2022/08/09 10:43:55;;;;;;;3.33;1.30;;;;;;;27.83;43.96;101083.44;5033560;28;20580;-86
2022/08/09 10:47:06;;;;;;;3.25;1.20;;;;;;;27.92;44.69;101084.25;5033521;28;20045;-87
2022/08/09 10:50:05;;;;;;;1.70;1.00;;;;;;;28.06;44.01;101081.88;5033562;28;20085;-85
2022/08/09 10:52:50;;;;;;;4.00;1.30;;;;;;;28.21;43.72;101082.88;5033936;28;20112;-85
2022/08/09 10:55:28;;;;;;;1.35;1.00;;;;;;;28.35;43.90;101088.63;5033149;28;20499;-85
2022/08/09 10:58:31;;;;;;;2.33;1.20;;;;;;;28.59;43.26;101086.88;5032981;28;20520;-85
2022/08/09 11:01:00;;;;;;;3.25;1.30;;;;;;;28.90;44.60;101088.81;5033321;28;20529;-85
2022/08/09 11:04:26;;;;;;;1.48;1.02;;;;;;;29.32;43.98;101077.72;5033250;28;20084;-85
2022/08/09 11:06:57;;;;;;;3.22;1.08;;;;;;;29.88;44.01;101077.50;4986751;28;20425;-86
2022/08/09 11:09:38;;;;;;;2.55;0.95;;;;;;;30.47;42.60;101071.50;5032637;28;20495;-87
2022/08/09 11:12:27;;;;;;;3.08;0.90;;;;;;;31.14;41.30;101075.09;5032917;28;20076;-85
2022/08/09 11:15:22;;;;;;;3.78;1.10;;;;;;;31.82;41.03;101075.75;5032424;28;20049;-86
2022/08/09 11:17:58;;;;;;;3.42;0.95;;;;;;;32.50;39.83;101077.09;5013820;28;20148;-84
2022/08/09 11:20:44;;;;;;;3.28;0.98;;;;;;;33.02;37.83;101079.44;5031579;28;20140;-85
2022/08/09 11:23:10;;;;;;;1.65;1.10;;;;;;;33.55;37.63;101075.13;5032443;28;20471;-83
2022/08/09 11:25:40;;;;;;;2.50;1.20;;;;;;;33.98;36.72;101065.69;5031914;28;20073;-84
2022/08/09 11:28:34;;;;;;;1.50;0.90;;;;;;;34.36;37.13;101066.03;5015126;28;20056;-84
2022/08/09 11:31:43;;;;;;;1.52;0.90;;;;;;;34.79;36.37;101059.19;5031748;28;20055;-84
2022/08/09 11:34:20;;;;;;;3.00;1.10;;;;;;;35.21;34.65;101064.25;5031596;28;20474;-84
2022/08/09 11:36:47;;;;;;;1.85;0.90;;;;;;;35.53;34.34;101057.88;5031523;28;20628;-85
2022/08/09 11:39:14;;;;;;;3.42;1.17;;;;;;;35.80;33.80;101047.56;5031496;28;20462;-84
2022/08/09 11:41:42;;;;;;;3.63;0.88;;;;;;;36.04;33.42;101049.66;5031119;28;20516;-84
2022/08/09 11:44:10;;;;;;;4.90;1.30;;;;;;;36.21;32.07;101042.53;5031099;28;20491;-84
2022/08/09 11:46:59;;;;;;;1.73;0.70;;;;;;;36.18;32.00;101040.25;5013778;28;20046;-84
2022/08/09 11:49:57;;;;;;;2.33;1.33;;;;;;;36.13;32.11;101051.88;5030940;28;20081;-84
2022/08/09 11:52:59;;;;;;;2.47;0.70;;;;;;;36.14;31.95;101044.50;5031641;28;20092;-85
2022/08/09 11:55:46;;;;;;;3.25;0.90;;;;;;;36.24;31.49;101047.56;5030532;28;20514;-86
2022/08/09 11:58:27;;;;;;;3.47;0.88;;;;;;;36.37;31.39;101043.81;5030815;28;20575;-85
2022/08/09 12:01:04;;;;;;;6.15;1.00;;;;;;;36.57;31.26;101044.66;5030820;28;20107;-86
2022/08/09 12:03:35;;;;;;;20.13;1.92;;;;;;;36.82;31.12;101033.59;5030854;28;20486;-87
2022/08/09 12:06:21;;;;;;;1.27;0.82;;;;;;;37.12;30.53;101042.88;5030921;28;20134;-86
2022/08/09 12:08:59;;;;;;;4.13;1.00;;;;;;;37.37;30.12;101037.22;5030714;28;20107;-88
2022/08/09 12:11:27;;;;;;;2.22;1.00;;;;;;;37.60;28.84;101031.97;5033191;28;20140;-85
2022/08/09 12:13:57;;;;;;;2.80;0.63;;;;;;;37.79;28.41;101021.75;5033315;28;20085;-85
2022/08/09 12:16:43;;;;;;;1.90;0.88;;;;;;;38.00;28.30;101025.78;5033122;28;20565;-85